createdAt,value
2018-08-20T00:01:31.147Z,26.80
2018-08-20T00:04:02.271Z,26.80
2018-08-20T00:06:41.361Z,26.80
2018-08-20T00:09:09.599Z,26.90
2018-08-20T00:11:37.802Z,26.80
2018-08-20T00:14:06.054Z,26.70
2018-08-20T00:16:34.841Z,26.80
2018-08-20T00:19:03.004Z,26.80
2018-08-20T00:21:31.165Z,26.70
2018-08-20T00:23:59.346Z,26.70
2018-08-20T00:26:29.039Z,26.70
2018-08-20T00:28:57.273Z,26.60
2018-08-20T00:31:25.429Z,26.50
2018-08-20T00:33:53.611Z,26.40
2018-08-20T00:36:21.778Z,26.40
2018-08-20T00:38:50.066Z,26.30
2018-08-20T00:41:18.290Z,26.20
2018-08-20T00:43:46.464Z,26.10
2018-08-20T00:46:14.633Z,26.10
2018-08-20T00:48:42.813Z,26.10
2018-08-20T00:51:10.990Z,26.30
2018-08-20T00:53:39.135Z,26.20
2018-08-20T00:56:07.295Z,26.30
2018-08-20T00:58:36.013Z,26.20
2018-08-20T01:01:04.341Z,26.10
2018-08-20T01:03:32.517Z,26.20
2018-08-20T01:06:00.693Z,26.10
2018-08-20T01:08:28.908Z,26.00
2018-08-20T01:10:58.338Z,26.10
2018-08-20T01:13:26.585Z,26.30
2018-08-20T01:15:54.845Z,26.40
2018-08-20T01:18:23.005Z,26.60
2018-08-20T01:20:51.265Z,26.60
2018-08-20T01:23:19.434Z,26.60
2018-08-20T01:25:47.624Z,26.50
2018-08-20T01:28:15.777Z,26.30
2018-08-20T01:30:44.081Z,26.20
2018-08-20T01:33:16.166Z,26.30
2018-08-20T01:35:44.341Z,26.10
2018-08-20T01:38:12.724Z,26.10
2018-08-20T01:40:40.900Z,26.00
2018-08-20T01:43:09.047Z,26.10
2018-08-20T01:45:37.200Z,26.10
2018-08-20T01:48:05.465Z,26.10
2018-08-20T01:50:33.635Z,26.00
2018-08-20T01:53:01.781Z,26.00
2018-08-20T01:55:29.951Z,25.90
2018-08-20T01:57:58.215Z,25.80
2018-08-20T02:00:26.490Z,25.80
2018-08-20T02:02:55.532Z,25.70
2018-08-20T02:05:24.185Z,25.50
2018-08-20T02:07:52.458Z,25.40
2018-08-20T02:10:20.789Z,25.40
2018-08-20T02:12:48.977Z,25.30
2018-08-20T02:15:17.134Z,25.30
2018-08-20T02:17:45.290Z,25.30
2018-08-20T02:20:13.677Z,25.40
2018-08-20T02:22:41.833Z,25.30
2018-08-20T02:25:10.021Z,25.40
2018-08-20T02:27:38.241Z,25.40
2018-08-20T02:30:06.629Z,25.30
2018-08-20T02:32:35.288Z,25.40
2018-08-20T02:35:03.448Z,25.30
2018-08-20T02:37:35.868Z,25.10
2018-08-20T02:40:06.091Z,25.00
2018-08-20T02:42:35.158Z,25.10
2018-08-20T02:45:04.486Z,25.10
2018-08-20T02:47:32.654Z,25.20
2018-08-20T02:50:00.994Z,25.10
2018-08-20T02:52:29.345Z,25.20
2018-08-20T02:54:57.509Z,25.10
2018-08-20T02:57:25.658Z,25.10
2018-08-20T02:59:53.869Z,25.10
2018-08-20T03:02:22.099Z,25.00
2018-08-20T03:04:50.398Z,24.90
2018-08-20T03:07:18.681Z,24.90
2018-08-20T03:09:46.921Z,25.10
2018-08-20T03:12:15.121Z,24.90
2018-08-20T03:14:43.398Z,24.60
2018-08-20T03:17:11.653Z,24.60
2018-08-20T03:19:39.867Z,24.50
2018-08-20T03:22:08.070Z,24.40
2018-08-20T03:24:36.299Z,24.40
2018-08-20T03:27:04.497Z,24.40
2018-08-20T03:29:32.723Z,24.40
2018-08-20T03:32:00.944Z,24.50
2018-08-20T03:34:29.151Z,24.40
2018-08-20T03:36:57.394Z,24.40
2018-08-20T03:39:25.579Z,24.10
2018-08-20T03:41:53.808Z,24.20
2018-08-20T03:44:21.983Z,24.10
2018-08-20T03:46:50.617Z,24.10
2018-08-20T03:49:18.812Z,24.10
2018-08-20T03:51:47.089Z,24.20
2018-08-20T03:54:15.305Z,24.00
2018-08-20T03:56:43.596Z,24.10
2018-08-20T03:59:26.237Z,24.10
2018-08-20T04:01:54.434Z,24.00
2018-08-20T04:04:22.610Z,23.90
2018-08-20T04:06:50.949Z,23.90
2018-08-20T04:09:19.355Z,24.00
2018-08-20T04:11:47.575Z,24.00
2018-08-20T04:14:15.765Z,24.00
2018-08-20T04:16:44.015Z,24.10
2018-08-20T04:19:12.480Z,24.10
2018-08-20T04:21:40.681Z,24.20
2018-08-20T04:24:08.874Z,24.10
2018-08-20T04:26:37.076Z,24.20
2018-08-20T04:29:05.578Z,24.10
2018-08-20T04:31:33.793Z,24.00
2018-08-20T04:34:02.035Z,23.90
2018-08-20T04:36:30.227Z,23.90
2018-08-20T04:38:58.449Z,24.00
2018-08-20T04:41:26.742Z,24.00
2018-08-20T04:43:55.143Z,24.10
2018-08-20T04:46:23.313Z,24.00
2018-08-20T04:48:51.533Z,24.00
2018-08-20T04:51:20.276Z,24.00
2018-08-20T04:53:48.293Z,24.00
2018-08-20T04:56:16.496Z,24.10
2018-08-20T04:58:44.733Z,24.30
2018-08-20T05:01:13.061Z,24.30
2018-08-20T05:03:41.457Z,24.30
2018-08-20T05:06:09.738Z,24.40
2018-08-20T05:08:37.965Z,24.40
2018-08-20T05:11:06.245Z,24.60
2018-08-20T05:13:35.288Z,24.40
2018-08-20T05:16:03.515Z,24.70
2018-08-20T05:18:32.145Z,24.70
2018-08-20T05:21:00.320Z,24.70
2018-08-20T05:23:28.639Z,24.80
2018-08-20T05:25:57.648Z,24.70
2018-08-20T05:28:25.825Z,24.70
2018-08-20T05:30:54.107Z,24.60
2018-08-20T05:33:22.257Z,24.70
2018-08-20T05:35:50.542Z,24.70
2018-08-20T05:38:18.803Z,24.70
2018-08-20T05:40:47.010Z,24.60
2018-08-20T05:43:15.198Z,24.60
2018-08-20T05:45:43.445Z,24.50
2018-08-20T05:48:11.659Z,24.60
2018-08-20T05:50:39.929Z,24.50
2018-08-20T05:53:08.144Z,24.50
2018-08-20T05:55:36.358Z,24.40
2018-08-20T05:58:04.624Z,24.60
2018-08-20T06:00:32.814Z,24.70
2018-08-20T06:03:07.617Z,24.40
2018-08-20T06:05:35.810Z,24.50
2018-08-20T06:08:03.989Z,24.60
2018-08-20T06:10:32.180Z,24.70
2018-08-20T06:13:00.353Z,24.60
2018-08-20T06:15:29.164Z,24.70
2018-08-20T06:17:57.346Z,24.70
2018-08-20T06:20:25.527Z,24.80
2018-08-20T06:22:53.770Z,24.80
2018-08-20T06:25:21.961Z,24.90
2018-08-20T06:27:50.275Z,25.10
2018-08-20T06:30:19.120Z,25.20
2018-08-20T06:32:47.441Z,25.30
2018-08-20T06:35:15.649Z,25.20
2018-08-20T06:37:44.005Z,25.20
2018-08-20T06:40:14.850Z,25.30
2018-08-20T06:42:43.522Z,25.60
2018-08-20T06:45:14.026Z,25.70
2018-08-20T06:47:43.039Z,25.70
2018-08-20T06:50:11.259Z,25.60
2018-08-20T06:52:40.095Z,25.70
2018-08-20T06:55:08.302Z,25.90
2018-08-20T06:57:37.446Z,25.70
2018-08-20T07:00:07.593Z,25.80
2018-08-20T07:02:35.942Z,25.80
2018-08-20T07:05:05.113Z,26.10
2018-08-20T07:07:33.316Z,26.00
2018-08-20T07:10:01.597Z,26.20
2018-08-20T07:12:29.953Z,26.50
2018-08-20T07:14:58.304Z,26.80
2018-08-20T07:17:26.511Z,27.20
2018-08-20T07:20:01.249Z,27.90
2018-08-20T07:22:29.433Z,28.00
2018-08-20T07:24:57.644Z,28.50
2018-08-20T07:27:26.010Z,28.70
2018-08-20T07:29:54.188Z,28.90
2018-08-20T07:32:22.353Z,29.30
2018-08-20T07:34:50.681Z,29.60
2018-08-20T07:37:18.926Z,29.90
2018-08-20T07:39:48.219Z,30.80
2018-08-20T07:42:16.442Z,31.90
2018-08-20T07:44:45.224Z,32.90
2018-08-20T07:47:13.583Z,33.90
2018-08-20T07:49:41.985Z,34.70
2018-08-20T07:52:10.839Z,35.30
2018-08-20T07:54:39.858Z,36.30
2018-08-20T07:57:09.653Z,37.00
2018-08-20T07:59:38.093Z,37.90
2018-08-20T08:02:06.895Z,39.00
2018-08-20T08:04:35.202Z,39.90
2018-08-20T08:07:03.452Z,41.10
2018-08-20T08:09:31.763Z,42.10
2018-08-20T08:12:00.102Z,43.10
2018-08-20T08:14:28.294Z,43.90
2018-08-20T08:16:56.801Z,44.80
2018-08-20T08:19:25.375Z,45.70
2018-08-20T08:21:53.667Z,46.80
2018-08-20T08:24:21.973Z,47.50
2018-08-20T08:26:50.169Z,48.10
2018-08-20T08:29:18.510Z,48.90
2018-08-20T08:31:46.693Z,49.40
2018-08-20T08:34:14.954Z,49.00
2018-08-20T08:36:43.974Z,49.50
2018-08-20T08:39:12.741Z,49.80
2018-08-20T08:41:41.119Z,49.60
2018-08-20T08:44:10.663Z,49.60
2018-08-20T08:46:38.909Z,49.60
2018-08-20T08:49:07.136Z,50.00
2018-08-20T08:51:35.396Z,50.30
2018-08-20T08:54:04.638Z,50.20
2018-08-20T08:56:32.986Z,50.20
2018-08-20T08:59:01.289Z,50.50
2018-08-20T09:01:29.582Z,50.90
2018-08-20T09:03:57.911Z,51.60
2018-08-20T09:06:26.093Z,52.10
2018-08-20T09:08:54.284Z,52.40
2018-08-20T09:11:22.473Z,51.90
2018-08-20T09:13:50.782Z,51.60
2018-08-20T09:16:18.934Z,51.60
2018-08-20T09:18:48.871Z,51.50
2018-08-20T09:21:17.082Z,52.10
2018-08-20T09:23:45.262Z,52.60
2018-08-20T09:26:13.518Z,52.50
2018-08-20T09:28:41.706Z,52.70
2018-08-20T09:31:09.884Z,53.20
2018-08-20T09:33:38.070Z,54.10
2018-08-20T09:36:06.334Z,54.80
2018-08-20T09:38:34.514Z,55.00
2018-08-20T09:41:02.694Z,54.90
2018-08-20T09:43:30.909Z,55.30
2018-08-20T09:45:59.174Z,55.30
2018-08-20T09:48:27.449Z,55.40
2018-08-20T09:50:55.657Z,55.30
2018-08-20T09:53:24.043Z,54.70
2018-08-20T09:55:52.197Z,54.30
2018-08-20T09:58:20.455Z,54.70
2018-08-20T10:00:48.634Z,55.20
2018-08-20T10:03:16.849Z,55.40
2018-08-20T10:05:45.177Z,55.30
2018-08-20T10:08:13.388Z,55.70
2018-08-20T10:10:41.581Z,56.50
2018-08-20T10:13:09.749Z,57.30
2018-08-20T10:15:38.002Z,57.70
2018-08-20T10:18:06.686Z,57.30
2018-08-20T10:20:34.905Z,56.60
2018-08-20T10:23:03.097Z,56.50
2018-08-20T10:25:31.282Z,56.40
2018-08-20T10:27:59.615Z,56.70
2018-08-20T10:30:27.816Z,56.40
2018-08-20T10:32:55.994Z,56.60
2018-08-20T10:35:24.193Z,56.50
2018-08-20T10:37:52.565Z,57.00
2018-08-20T10:40:20.642Z,57.00
2018-08-20T10:42:48.818Z,57.00
2018-08-20T10:45:24.229Z,56.50
2018-08-20T10:47:52.419Z,55.80
2018-08-20T10:50:21.122Z,56.40
2018-08-20T10:52:51.312Z,57.00
2018-08-20T10:55:19.566Z,58.10
2018-08-20T10:57:47.837Z,58.90
2018-08-20T11:00:16.550Z,59.60
2018-08-20T11:02:44.889Z,59.90
2018-08-20T11:05:14.849Z,59.50
2018-08-20T11:07:43.157Z,59.10
2018-08-20T11:10:11.603Z,57.90
2018-08-20T11:12:39.758Z,57.30
2018-08-20T11:15:09.394Z,57.70
2018-08-20T11:17:38.077Z,57.60
2018-08-20T11:20:08.791Z,57.60
2018-08-20T11:22:37.082Z,58.30
2018-08-20T11:25:06.198Z,59.00
2018-08-20T11:27:34.504Z,59.40
2018-08-20T11:30:02.727Z,59.90
2018-08-20T11:32:30.913Z,59.00
2018-08-20T11:34:59.187Z,58.70
2018-08-20T11:37:27.383Z,57.60
2018-08-20T11:39:55.565Z,58.00
2018-08-20T11:42:23.816Z,58.40
2018-08-20T11:44:52.878Z,59.00
2018-08-20T11:47:21.081Z,58.30
2018-08-20T11:49:50.127Z,58.80
2018-08-20T11:52:18.323Z,58.90
2018-08-20T11:54:46.573Z,58.10
2018-08-20T11:57:15.061Z,57.30
2018-08-20T11:59:43.398Z,57.00
2018-08-20T12:02:11.627Z,57.30
2018-08-20T12:04:39.906Z,57.50
2018-08-20T12:07:08.114Z,58.20
2018-08-20T12:09:36.309Z,58.10
2018-08-20T12:12:04.591Z,58.80
2018-08-20T12:14:32.758Z,59.50
2018-08-20T12:17:00.921Z,60.10
2018-08-20T12:19:29.201Z,60.10
2018-08-20T12:21:57.436Z,60.10
2018-08-20T12:24:25.640Z,60.00
2018-08-20T12:26:54.035Z,59.00
2018-08-20T12:29:22.253Z,57.50
2018-08-20T12:31:50.449Z,55.90
2018-08-20T12:34:18.661Z,56.00
2018-08-20T12:36:46.821Z,56.80
2018-08-20T12:39:15.023Z,57.80
2018-08-20T12:41:43.411Z,58.00
2018-08-20T12:44:11.578Z,57.90
2018-08-20T12:46:39.749Z,57.70
2018-08-20T12:49:07.949Z,57.90
2018-08-20T12:51:36.206Z,57.00
2018-08-20T12:54:04.446Z,56.40
2018-08-20T12:56:32.738Z,56.40
2018-08-20T12:59:01.242Z,54.60
2018-08-20T13:01:29.482Z,52.10
2018-08-20T13:03:57.862Z,49.50
2018-08-20T13:06:26.037Z,47.40
2018-08-20T13:08:54.291Z,45.50
2018-08-20T13:11:22.608Z,44.00
2018-08-20T13:13:50.840Z,43.10
2018-08-20T13:16:19.104Z,41.80
2018-08-20T13:18:47.261Z,40.90
2018-08-20T13:21:15.533Z,40.20
2018-08-20T13:23:43.790Z,39.50
2018-08-20T13:26:11.996Z,39.20
2018-08-20T13:28:40.185Z,39.20
2018-08-20T13:31:08.405Z,39.40
2018-08-20T13:33:37.145Z,39.00
2018-08-20T13:36:05.453Z,38.40
2018-08-20T13:38:33.671Z,38.10
2018-08-20T13:41:02.489Z,38.00
2018-08-20T13:43:30.730Z,37.50
2018-08-20T13:45:58.975Z,37.80
2018-08-20T13:48:27.165Z,38.60
2018-08-20T13:50:55.585Z,39.00
2018-08-20T13:53:23.880Z,39.40
2018-08-20T13:55:52.945Z,39.80
2018-08-20T13:58:21.141Z,39.40
2018-08-20T14:00:49.455Z,38.70
2018-08-20T14:03:17.870Z,38.60
2018-08-20T14:05:46.063Z,38.10
2018-08-20T14:08:14.424Z,37.90
2018-08-20T14:13:45.959Z,37.10
2018-08-20T14:16:14.172Z,38.10
2018-08-20T14:18:42.361Z,39.30
2018-08-20T14:21:12.709Z,40.80
2018-08-20T14:23:45.026Z,41.90
2018-08-20T14:26:13.515Z,43.30
2018-08-20T14:28:41.702Z,44.70
2018-08-20T14:31:10.009Z,45.10
2018-08-20T14:33:38.367Z,45.10
2018-08-20T14:36:06.965Z,45.70
2018-08-20T14:38:35.495Z,45.60
2018-08-20T14:41:04.171Z,44.60
2018-08-20T14:43:32.389Z,43.80
2018-08-20T14:46:06.206Z,42.60
2018-08-20T14:48:34.379Z,41.80
2018-08-20T14:51:02.564Z,42.10
2018-08-20T14:53:30.853Z,43.00
2018-08-20T14:55:59.089Z,44.50
2018-08-20T14:58:27.603Z,45.70
2018-08-20T15:00:55.910Z,46.30
2018-08-20T15:03:24.118Z,46.40
2018-08-20T15:05:52.377Z,46.50
2018-08-20T15:08:20.640Z,47.00
2018-08-20T15:10:55.533Z,46.80
2018-08-20T15:13:23.730Z,45.00
2018-08-20T15:15:52.141Z,43.40
2018-08-20T15:18:20.387Z,42.20
2018-08-20T15:20:48.589Z,41.80
2018-08-20T15:23:17.719Z,42.30
2018-08-20T15:25:46.105Z,43.50
2018-08-20T15:28:14.429Z,44.30
2018-08-20T15:30:42.717Z,45.20
2018-08-20T15:33:10.909Z,45.60
2018-08-20T15:35:39.149Z,45.10
2018-08-20T15:38:07.718Z,45.70
2018-08-20T15:40:36.055Z,44.80
2018-08-20T15:43:04.261Z,44.60
2018-08-20T15:45:32.509Z,43.60
2018-08-20T15:48:00.801Z,42.90
2018-08-20T15:50:29.058Z,42.90
2018-08-20T15:52:57.464Z,43.30
2018-08-20T15:55:25.709Z,43.90
2018-08-20T15:57:53.910Z,43.80
2018-08-20T16:00:22.289Z,42.60
2018-08-20T16:02:50.496Z,41.80
2018-08-20T16:05:18.930Z,41.90
2018-08-20T16:07:47.136Z,42.10
2018-08-20T16:10:15.474Z,42.20
2018-08-20T16:12:43.678Z,42.50
2018-08-20T16:15:11.928Z,42.90
2018-08-20T16:17:40.182Z,43.10
2018-08-20T16:20:08.503Z,42.70
2018-08-20T16:22:37.065Z,42.80
2018-08-20T16:25:07.178Z,42.70
2018-08-20T16:27:35.712Z,42.20
2018-08-20T16:30:06.545Z,41.00
2018-08-20T16:32:34.787Z,40.30
2018-08-20T16:35:06.373Z,39.70
2018-08-20T16:37:34.634Z,39.30
2018-08-20T16:40:02.975Z,38.80
2018-08-20T16:42:31.192Z,38.90
2018-08-20T16:44:59.427Z,38.70
2018-08-20T16:47:27.737Z,38.40
2018-08-20T16:49:57.177Z,38.30
2018-08-20T16:52:26.197Z,37.70
2018-08-20T16:54:55.969Z,37.00
2018-08-20T16:57:24.717Z,36.50
2018-08-20T16:59:53.774Z,35.90
2018-08-20T17:02:29.197Z,35.40
2018-08-20T17:04:57.746Z,35.00
2018-08-20T17:07:26.877Z,34.60
2018-08-20T17:09:55.848Z,34.20
2018-08-20T17:12:24.937Z,33.80
2018-08-20T17:14:53.959Z,33.70
2018-08-20T17:17:22.909Z,33.30
2018-08-20T17:19:52.027Z,33.30
2018-08-20T17:22:22.033Z,33.30
2018-08-20T17:24:56.744Z,33.20
2018-08-20T17:27:25.744Z,33.20
2018-08-20T17:29:55.575Z,33.10
2018-08-20T17:32:24.481Z,32.70
2018-08-20T17:34:53.746Z,32.70
2018-08-20T17:37:22.713Z,32.50
2018-08-20T17:40:01.625Z,32.60
2018-08-20T17:42:32.127Z,32.90
2018-08-20T17:45:02.116Z,32.80
2018-08-20T17:47:31.865Z,32.70
2018-08-20T17:50:01.444Z,32.60
2018-08-20T17:52:32.881Z,32.70
2018-08-20T17:55:03.480Z,32.60
2018-08-20T17:57:33.191Z,32.60
2018-08-20T18:00:28.715Z,32.30
2018-08-20T18:02:56.969Z,32.10
2018-08-20T18:05:25.755Z,31.90
2018-08-20T18:07:54.604Z,31.90
2018-08-20T18:10:22.895Z,31.70
2018-08-20T18:12:51.256Z,31.80
2018-08-20T18:15:19.621Z,31.60
2018-08-20T18:17:47.949Z,31.60
2018-08-20T18:20:16.163Z,31.50
2018-08-20T18:22:44.368Z,31.40
2018-08-20T18:25:12.702Z,31.40
2018-08-20T18:27:44.120Z,31.40
2018-08-20T18:30:13.756Z,31.20
2018-08-20T18:32:41.968Z,31.10
2018-08-20T18:35:10.191Z,31.00
2018-08-20T18:37:42.922Z,30.90
2018-08-20T18:40:11.241Z,30.90
2018-08-20T18:42:44.867Z,30.90
2018-08-20T18:45:13.171Z,30.80
2018-08-20T18:47:41.368Z,30.60
2018-08-20T18:50:10.215Z,30.50
2018-08-20T18:52:38.429Z,30.60
2018-08-20T18:55:07.508Z,30.50
2018-08-20T18:57:36.956Z,30.30
2018-08-20T19:00:11.174Z,30.20
2018-08-20T19:02:46.603Z,30.00
2018-08-20T19:05:16.004Z,29.80
2018-08-20T19:07:44.608Z,29.80
2018-08-20T19:10:25.061Z,29.70
2018-08-20T19:12:53.318Z,29.70
2018-08-20T19:15:55.596Z,29.50
2018-08-20T19:18:28.120Z,29.40
2018-08-20T19:20:56.354Z,29.20
2018-08-20T19:23:24.540Z,29.10
2018-08-20T19:25:52.756Z,29.30
2018-08-20T19:28:21.995Z,29.30
2018-08-20T19:30:51.170Z,29.40
2018-08-20T19:33:25.721Z,29.10
2018-08-20T19:35:54.651Z,29.20
2018-08-20T19:38:22.816Z,29.10
2018-08-20T19:41:03.553Z,29.20
2018-08-20T19:43:37.310Z,29.10
2018-08-20T19:46:05.647Z,29.10
2018-08-20T19:48:33.831Z,29.00
2018-08-20T19:51:04.336Z,29.00
2018-08-20T19:53:32.533Z,28.90
2018-08-20T19:56:00.743Z,29.10
2018-08-20T19:58:33.554Z,29.00
2018-08-20T20:01:08.587Z,28.90
2018-08-20T20:03:36.901Z,28.60
2018-08-20T20:06:05.219Z,28.70
2018-08-20T20:08:33.404Z,28.60
2018-08-20T20:11:01.571Z,28.50
2018-08-20T20:13:29.912Z,28.60
2018-08-20T20:15:59.900Z,28.50
2018-08-20T20:18:29.253Z,28.50
2018-08-20T20:20:57.521Z,28.40
2018-08-20T20:23:25.697Z,28.10
2018-08-20T20:25:53.855Z,28.10
2018-08-20T20:28:22.127Z,28.10
2018-08-20T20:30:50.386Z,28.00
2018-08-20T20:33:18.618Z,28.20
2018-08-20T20:35:47.993Z,28.20
2018-08-20T20:38:16.196Z,28.20
2018-08-20T20:40:45.145Z,28.20
2018-08-20T20:43:13.333Z,28.00
2018-08-20T20:45:41.521Z,28.00
2018-08-20T20:48:09.719Z,27.90
2018-08-20T20:50:37.889Z,28.00
2018-08-20T20:53:06.218Z,27.90
2018-08-20T20:55:34.393Z,27.90
2018-08-20T20:58:02.565Z,27.90
2018-08-20T21:00:30.729Z,27.90
2018-08-20T21:03:08.537Z,27.80
2018-08-20T21:05:37.007Z,27.70
2018-08-20T21:08:05.363Z,27.70
2018-08-20T21:10:39.089Z,27.80
2018-08-20T21:13:07.410Z,27.70
2018-08-20T21:15:35.855Z,27.60
2018-08-20T21:18:04.033Z,27.70
2018-08-20T21:20:32.221Z,27.70
2018-08-20T21:23:00.378Z,27.80
2018-08-20T21:25:28.746Z,27.90
2018-08-20T21:27:57.151Z,27.70
2018-08-20T21:30:26.285Z,27.90
2018-08-20T21:32:54.478Z,27.90
2018-08-20T21:35:22.740Z,27.70
2018-08-20T21:37:51.140Z,27.80
2018-08-20T21:40:28.680Z,27.90
2018-08-20T21:42:57.823Z,27.90
2018-08-20T21:45:26.002Z,28.10
2018-08-20T21:47:54.206Z,28.00
2018-08-20T21:50:22.448Z,28.20
2018-08-20T21:52:50.790Z,28.10
2018-08-20T21:55:18.962Z,28.00
2018-08-20T21:57:51.563Z,28.00
2018-08-20T22:00:20.761Z,27.90
2018-08-20T22:02:57.814Z,27.70
2018-08-20T22:05:26.233Z,27.90
2018-08-20T22:07:56.261Z,27.90
2018-08-20T22:10:25.352Z,28.10
2018-08-20T22:12:53.566Z,28.40
2018-08-20T22:15:21.775Z,28.40
2018-08-20T22:17:50.125Z,28.30
2018-08-20T22:20:18.944Z,28.40
2018-08-20T22:22:47.087Z,28.40
2018-08-20T22:25:16.074Z,28.50
2018-08-20T22:27:49.641Z,28.50
2018-08-20T22:30:17.920Z,28.50
2018-08-20T22:32:46.419Z,28.30
2018-08-20T22:35:24.293Z,28.60
2018-08-20T22:37:52.893Z,28.60
2018-08-20T22:40:22.160Z,28.50
2018-08-20T22:42:59.086Z,28.50
2018-08-20T22:45:27.277Z,28.50
2018-08-20T22:47:55.513Z,28.50
2018-08-20T22:50:23.719Z,28.10
2018-08-20T22:52:52.377Z,28.20
2018-08-20T22:55:21.724Z,28.30
2018-08-20T22:58:01.564Z,28.20
2018-08-20T23:00:29.968Z,28.30
2018-08-20T23:02:58.182Z,28.20
2018-08-20T23:05:29.050Z,28.10
2018-08-20T23:07:59.945Z,28.00
2018-08-20T23:10:28.233Z,27.90
2018-08-20T23:12:56.441Z,27.90
2018-08-20T23:15:24.656Z,27.60
2018-08-20T23:17:52.849Z,27.50
2018-08-20T23:20:27.287Z,27.40
2018-08-20T23:22:55.510Z,27.10
2018-08-20T23:25:23.705Z,27.10
2018-08-20T23:27:52.013Z,27.00
2018-08-20T23:30:20.357Z,26.90
2018-08-20T23:32:48.987Z,26.90
2018-08-20T23:35:17.162Z,26.80
2018-08-20T23:37:45.528Z,26.70
2018-08-20T23:40:13.783Z,26.90
2018-08-20T23:42:41.986Z,26.80
2018-08-20T23:45:10.162Z,26.80
2018-08-20T23:47:38.356Z,26.70
2018-08-20T23:50:06.918Z,26.60
2018-08-20T23:52:35.102Z,26.50
2018-08-20T23:55:03.300Z,26.30
2018-08-20T23:57:31.498Z,26.40
2018-08-20T23:59:59.683Z,26.10
